Time;durP1;ratioP1;P1;durP2;ratioP2;P2;SDS_P1;SDS_P2;PMS_P1;PMS_P2;Temp;Humidity;BMP_temperature;BMP_pressure;BME280_temperature;BME280_humidity;BME280_pressure;Samples;Min_cycle;Max_cycle;Signal;HPM_P1;HPM_P2
2022/12/06 00:01:11;;;;;;;;;;;;;;;8.72;80.35;101982.16;7356570;19;20205;-64
2022/12/06 00:03:39;;;;;;;;;;;;;;;8.71;80.17;101988.34;7356405;19;19923;-64
2022/12/06 00:06:07;;;;;;;;;;;;;;;8.72;80.08;101990.03;7357354;19;20446;-64
2022/12/06 00:08:35;;;;;;;;;;;;;;;8.68;79.96;101985.97;7354945;19;20365;-65
2022/12/06 00:11:03;;;;;;;;;;;;;;;8.66;80.88;101987.84;7353181;19;19949;-67
2022/12/06 00:13:30;;;;;;;;;;;;;;;8.58;80.16;101980.56;7353802;19;20214;-66
2022/12/06 00:16:01;;;;;;;;;;;;;;;8.54;80.66;101985.16;7356698;19;20589;-66
2022/12/06 00:18:29;;;;;;;;;;;;;;;8.51;80.90;101981.94;7354988;19;19923;-64
2022/12/06 00:21:03;;;;;;;;;;;;;;;8.49;80.77;101976.78;7354761;19;19919;-65
2022/12/06 00:23:31;;;;;;;;;;;;;;;8.46;80.97;101981.44;7355988;19;20735;-65
2022/12/06 00:25:59;;;;;;;;;;;;;;;8.48;81.06;101990.03;7358104;19;20010;-65
2022/12/06 00:28:26;;;;;;;;;;;;;;;8.52;80.03;101987.09;7353940;19;19918;-64
2022/12/06 00:30:58;;;;;;;;;;;;;;;8.51;80.15;101990.66;7353862;19;20343;-65
2022/12/06 00:33:26;;;;;;;;;;;;;;;8.47;80.56;101981.34;7356807;19;19926;-64
2022/12/06 00:35:57;;;;;;;;;;;;;;;8.48;80.85;101987.41;7355239;19;19982;-64
2022/12/06 00:38:24;;;;;;;;;;;;;;;8.49;80.46;101992.53;7356336;19;20410;-64
2022/12/06 00:41:02;;;;;;;;;;;;;;;8.55;79.80;101984.22;7358921;19;19947;-65
2022/12/06 00:43:29;;;;;;;;;;;;;;;8.51;80.08;101984.56;7358203;19;19964;-64
2022/12/06 00:45:56;;;;;;;;;;;;;;;8.47;80.31;101981.34;7354485;19;19914;-64
2022/12/06 00:48:24;;;;;;;;;;;;;;;8.50;80.40;101988.97;7353508;19;20682;-64
2022/12/06 00:50:51;;;;;;;;;;;;;;;8.48;80.88;101980.34;7350527;19;19941;-64
2022/12/06 00:53:18;;;;;;;;;;;;;;;8.47;80.80;101973.47;7357536;19;19978;-64
2022/12/06 00:55:45;;;;;;;;;;;;;;;8.50;80.02;101968.00;7359402;19;19955;-65
2022/12/06 00:58:13;;;;;;;;;;;;;;;8.46;79.90;101965.69;7357395;19;19933;-65
2022/12/06 01:00:40;;;;;;;;;;;;;;;8.44;80.11;101962.34;7354263;19;21641;-64
2022/12/06 01:03:09;;;;;;;;;;;;;;;8.43;80.25;101971.19;7355545;19;19939;-63
2022/12/06 01:05:44;;;;;;;;;;;;;;;8.39;80.45;101967.91;7355155;19;19990;-65
2022/12/06 01:08:11;;;;;;;;;;;;;;;8.38;80.13;101965.44;7353912;19;19959;-65
2022/12/06 01:10:38;;;;;;;;;;;;;;;8.34;80.41;101972.66;7353826;19;20320;-68
2022/12/06 01:13:06;;;;;;;;;;;;;;;8.30;80.43;101965.97;7354532;19;20014;-66
2022/12/06 01:15:35;;;;;;;;;;;;;;;8.26;80.81;101968.88;7351661;19;20773;-64
2022/12/06 01:18:03;;;;;;;;;;;;;;;8.24;80.88;101963.75;7354081;19;20023;-64
2022/12/06 01:20:30;;;;;;;;;;;;;;;8.29;80.68;101963.41;7357620;19;20002;-65
2022/12/06 01:22:56;;;;;;;;;;;;;;;8.24;80.91;101960.28;7355769;19;19926;-65
2022/12/06 01:25:24;;;;;;;;;;;;;;;8.23;81.38;101961.25;7351743;19;19923;-65
2022/12/06 01:27:52;;;;;;;;;;;;;;;8.22;80.55;101968.28;7348225;19;19923;-65
2022/12/06 01:30:19;;;;;;;;;;;;;;;8.16;80.97;101959.06;7352998;19;19926;-65
2022/12/06 01:32:46;;;;;;;;;;;;;;;8.13;81.19;101963.66;7352456;19;19923;-66
2022/12/06 01:35:13;;;;;;;;;;;;;;;8.09;81.40;101968.28;7351399;19;20046;-65
2022/12/06 01:37:40;;;;;;;;;;;;;;;8.06;81.48;101960.66;7353636;19;19969;-65
2022/12/06 01:40:08;;;;;;;;;;;;;;;8.05;81.76;101956.34;7352873;19;19922;-65
2022/12/06 01:42:35;;;;;;;;;;;;;;;8.01;82.64;101954.06;7350816;19;19939;-66
2022/12/06 01:45:03;;;;;;;;;;;;;;;8.00;82.55;101955.84;7352122;19;19927;-65
2022/12/06 01:47:32;;;;;;;;;;;;;;;8.01;82.03;101946.19;7353417;19;20315;-64
2022/12/06 01:50:09;;;;;;;;;;;;;;;7.99;82.31;101950.69;7352629;19;19929;-65
2022/12/06 01:52:41;;;;;;;;;;;;;;;7.98;82.14;101952.47;7350888;19;19959;-65
2022/12/06 01:55:10;;;;;;;;;;;;;;;7.97;81.92;101948.22;7353386;19;20968;-65
2022/12/06 01:57:37;;;;;;;;;;;;;;;7.92;82.47;101939.00;7351449;19;20646;-67
2022/12/06 02:00:05;;;;;;;;;;;;;;;7.86;82.82;101953.38;7357591;19;20003;-65
2022/12/06 02:02:32;;;;;;;;;;;;;;;7.82;83.31;101946.66;7351598;19;19923;-65
2022/12/06 02:05:00;;;;;;;;;;;;;;;7.79;82.96;101941.63;7353285;19;20263;-64
2022/12/06 02:07:28;;;;;;;;;;;;;;;7.77;83.24;101943.53;7350770;19;19927;-65
2022/12/06 02:09:56;;;;;;;;;;;;;;;7.72;83.82;101953.47;7354479;19;19915;-66
2022/12/06 02:12:23;;;;;;;;;;;;;;;7.72;83.67;101951.69;7347469;19;19923;-66
2022/12/06 02:14:52;;;;;;;;;;;;;;;7.76;83.57;101951.50;7356846;19;20616;-65
2022/12/06 02:17:25;;;;;;;;;;;;;;;7.72;83.46;101940.38;7349737;19;19915;-64
2022/12/06 02:19:55;;;;;;;;;;;;;;;7.70;83.42;101950.97;7358910;19;19941;-64
2022/12/06 02:22:43;;;;;;;;;;;;;;;7.67;83.51;101942.47;7354471;19;19919;-66
2022/12/06 02:25:19;;;;;;;;;;;;;;;7.64;83.63;101948.78;7355735;19;19925;-66
2022/12/06 02:27:49;;;;;;;;;;;;;;;7.64;83.67;101943.53;7350694;19;20055;-66
2022/12/06 02:30:26;;;;;;;;;;;;;;;7.62;84.15;101947.19;7347812;19;19923;-66
2022/12/06 02:32:58;;;;;;;;;;;;;;;7.58;83.83;101950.97;7349145;19;19990;-66
2022/12/06 02:35:35;;;;;;;;;;;;;;;7.56;84.53;101947.63;7350710;19;19952;-66
2022/12/06 02:38:11;;;;;;;;;;;;;;;7.55;84.50;101946.78;7351491;19;19933;-66
2022/12/06 02:40:42;;;;;;;;;;;;;;;7.54;84.28;101946.88;7351687;19;20379;-64
2022/12/06 02:43:14;;;;;;;;;;;;;;;7.56;84.45;101952.88;7348470;19;19937;-65
2022/12/06 02:45:44;;;;;;;;;;;;;;;7.53;84.70;101950.44;7355745;19;20302;-66
2022/12/06 02:48:12;;;;;;;;;;;;;;;7.53;84.37;101948.66;7358522;19;19923;-64
2022/12/06 02:50:41;;;;;;;;;;;;;;;7.57;84.47;101947.50;7348184;19;19919;-65
2022/12/06 02:53:12;;;;;;;;;;;;;;;7.56;83.97;101951.09;7353410;19;19938;-64
2022/12/06 02:55:39;;;;;;;;;;;;;;;7.56;83.65;101952.88;7352027;19;20774;-65
2022/12/06 02:58:06;;;;;;;;;;;;;;;7.53;84.11;101953.06;7345223;19;20529;-64
2022/12/06 03:00:35;;;;;;;;;;;;;;;7.50;84.06;101945.44;7355097;19;20407;-65
2022/12/06 03:03:03;;;;;;;;;;;;;;;7.47;84.06;101946.47;7350016;19;19923;-64
2022/12/06 03:05:39;;;;;;;;;;;;;;;7.45;85.14;101948.38;7351817;19;19949;-64
2022/12/06 03:08:11;;;;;;;;;;;;;;;7.44;84.84;101951.91;7351622;19;20010;-66
2022/12/06 03:10:43;;;;;;;;;;;;;;;7.42;84.71;101945.09;7348522;19;20289;-65
2022/12/06 03:13:15;;;;;;;;;;;;;;;7.42;84.67;101943.31;7350218;19;19926;-67
2022/12/06 03:15:47;;;;;;;;;;;;;;;7.42;84.53;101932.84;7349643;19;20338;-66
2022/12/06 03:18:19;;;;;;;;;;;;;;;7.44;84.45;101943.22;7350126;19;19927;-66
2022/12/06 03:20:50;;;;;;;;;;;;;;;7.48;83.82;101939.44;7350020;19;19926;-66
2022/12/06 03:23:21;;;;;;;;;;;;;;;7.48;84.23;101939.44;7347612;19;19935;-66
2022/12/06 03:25:49;;;;;;;;;;;;;;;7.48;84.23;101936.81;7347362;19;20094;-65
2022/12/06 03:28:17;;;;;;;;;;;;;;;7.49;84.42;101933.28;7347750;19;20535;-66
2022/12/06 03:30:46;;;;;;;;;;;;;;;7.49;84.38;101935.88;7346560;19;19923;-66
2022/12/06 03:33:14;;;;;;;;;;;;;;;7.49;84.30;101934.13;7350425;19;19923;-65
2022/12/06 03:35:42;;;;;;;;;;;;;;;7.50;84.22;101927.94;7348209;19;20566;-65
2022/12/06 03:38:12;;;;;;;;;;;;;;;7.49;84.82;101934.13;7352055;19;21637;-65
2022/12/06 03:40:42;;;;;;;;;;;;;;;7.48;84.86;101927.19;7348943;19;20169;-65
2022/12/06 03:43:10;;;;;;;;;;;;;;;7.47;85.18;101925.50;7347832;19;19926;-65
2022/12/06 03:45:41;;;;;;;;;;;;;;;7.44;85.88;101928.34;7350897;19;19937;-64
2022/12/06 03:48:11;;;;;;;;;;;;;;;7.43;86.62;101925.84;7349711;19;19923;-65
2022/12/06 03:50:42;;;;;;;;;;;;;;;7.43;87.00;101931.06;7346980;19;20100;-66
2022/12/06 03:53:09;;;;;;;;;;;;;;;7.45;86.45;101929.19;7348608;19;20158;-65
2022/12/06 03:55:36;;;;;;;;;;;;;;;7.43;86.35;101926.69;7348804;19;19927;-65
2022/12/06 03:58:03;;;;;;;;;;;;;;;7.47;86.27;101924.69;7350442;19;19998;-68
2022/12/06 04:00:30;;;;;;;;;;;;;;;7.44;86.61;101912.66;7350389;19;20658;-65
2022/12/06 04:02:57;;;;;;;;;;;;;;;7.42;87.26;101917.13;7351007;19;20160;-65
2022/12/06 04:05:24;;;;;;;;;;;;;;;7.39;87.23;101912.13;7347066;19;19933;-64
2022/12/06 04:07:52;;;;;;;;;;;;;;;7.37;87.71;101914.00;7350781;19;19923;-65
2022/12/06 04:10:19;;;;;;;;;;;;;;;7.38;87.96;101914.84;7349184;19;19918;-66
2022/12/06 04:15:23;;;;;;;;;;;;;;;7.40;88.34;101913.81;7350165;19;19922;-65
2022/12/06 04:20:27;;;;;;;;;;;;;;;7.43;87.18;101910.97;7349958;19;20367;-64
2022/12/06 04:25:33;;;;;;;;;;;;;;;7.38;87.07;101914.84;7348527;19;19922;-66
2022/12/06 04:41:08;;;;;;;;;;;;;;;7.27;88.82;101910.34;7355925;19;19919;-65
2022/12/06 04:46:13;;;;;;;;;;;;;;;7.27;88.04;101892.84;7354904;19;20376;-64
2022/12/06 04:48:40;;;;;;;;;;;;;;;7.27;88.21;101895.47;7354863;19;19915;-64
2022/12/06 04:51:11;;;;;;;;;;;;;;;7.28;88.14;101910.25;7354802;19;20282;-65
2022/12/06 04:53:38;;;;;;;;;;;;;;;7.27;88.15;101903.31;7357245;19;20573;-65
2022/12/06 04:56:05;;;;;;;;;;;;;;;7.28;87.78;101904.16;7354866;19;20583;-64
2022/12/06 04:58:32;;;;;;;;;;;;;;;7.27;87.65;101907.72;7352447;19;20512;-65
2022/12/06 05:00:59;;;;;;;;;;;;;;;7.25;88.10;101902.63;7355709;19;21639;-65
2022/12/06 05:03:26;;;;;;;;;;;;;;;7.24;88.05;101900.94;7354467;19;19947;-64
2022/12/06 05:05:53;;;;;;;;;;;;;;;7.23;87.84;101899.25;7355138;19;20511;-65
2022/12/06 05:08:20;;;;;;;;;;;;;;;7.21;87.69;101890.66;7354796;19;19970;-65
2022/12/06 05:10:48;;;;;;;;;;;;;;;7.20;88.07;101894.22;7353407;19;19978;-65
2022/12/06 05:13:16;;;;;;;;;;;;;;;7.22;88.54;101894.94;7351300;19;19919;-65
2022/12/06 05:15:54;;;;;;;;;;;;;;;7.19;87.89;101902.19;7353086;19;20612;-65
2022/12/06 05:18:22;;;;;;;;;;;;;;;7.17;88.17;101896.19;7351313;19;19986;-66
2022/12/06 05:20:49;;;;;;;;;;;;;;;7.16;88.94;101891.94;7352292;19;19990;-65
2022/12/06 05:23:16;;;;;;;;;;;;;;;7.20;88.75;101898.63;7353690;19;20268;-65
2022/12/06 05:25:43;;;;;;;;;;;;;;;7.18;88.15;101895.25;7354360;19;19930;-65
2022/12/06 05:28:09;;;;;;;;;;;;;;;7.18;87.90;101892.66;7349067;19;19915;-65
2022/12/06 05:30:36;;;;;;;;;;;;;;;7.17;87.86;101897.03;7359684;19;19923;-65
2022/12/06 05:33:03;;;;;;;;;;;;;;;7.17;88.24;101901.44;7358042;19;20013;-65
2022/12/06 05:35:31;;;;;;;;;;;;;;;7.20;87.60;101901.25;7355288;19;20409;-64
2022/12/06 05:37:58;;;;;;;;;;;;;;;7.20;87.63;101904.69;7359204;19;19914;-64
2022/12/06 05:40:25;;;;;;;;;;;;;;;7.22;87.33;101900.19;7358120;19;19990;-64
2022/12/06 05:42:51;;;;;;;;;;;;;;;7.18;87.73;101901.34;7354257;19;19919;-65
2022/12/06 05:45:18;;;;;;;;;;;;;;;7.14;88.32;101902.50;7351154;19;19918;-64
2022/12/06 05:47:45;;;;;;;;;;;;;;;7.17;88.11;101896.19;7352235;19;19927;-65
2022/12/06 05:50:12;;;;;;;;;;;;;;;7.13;88.44;101898.19;7351400;19;20149;-65
2022/12/06 05:52:39;;;;;;;;;;;;;;;7.11;88.14;101891.41;7351970;19;19927;-66
2022/12/06 05:55:06;;;;;;;;;;;;;;;7.11;88.56;101915.78;7355195;19;19918;-64
2022/12/06 05:57:33;;;;;;;;;;;;;;;7.10;88.66;101905.44;7368023;19;19941;-64
2022/12/06 06:00:01;;;;;;;;;;;;;;;7.09;88.70;101903.75;7354109;19;20438;-64
2022/12/06 06:02:28;;;;;;;;;;;;;;;7.12;88.67;101906.97;7353712;19;19942;-65
2022/12/06 06:04:55;;;;;;;;;;;;;;;7.12;88.80;101912.22;7352320;19;19949;-64
2022/12/06 06:07:22;;;;;;;;;;;;;;;7.14;88.75;101906.88;7354031;19;20291;-65
2022/12/06 06:09:49;;;;;;;;;;;;;;;7.14;88.11;101907.72;7355385;19;20657;-65
2022/12/06 06:12:16;;;;;;;;;;;;;;;7.13;88.30;101899.97;7350704;19;20922;-65
2022/12/06 06:14:43;;;;;;;;;;;;;;;7.12;88.06;101911.38;7353897;19;19959;-64
2022/12/06 06:17:10;;;;;;;;;;;;;;;7.12;88.18;101901.75;7351678;19;19927;-65
2022/12/06 06:19:37;;;;;;;;;;;;;;;7.10;87.68;101905.44;7353123;19;19938;-65
2022/12/06 06:22:04;;;;;;;;;;;;;;;7.09;88.05;101901.97;7352040;19;19974;-65
2022/12/06 06:24:35;;;;;;;;;;;;;;;7.10;87.99;101908.88;7355393;19;19915;-65
2022/12/06 06:27:02;;;;;;;;;;;;;;;7.04;87.45;101906.69;7348712;19;20301;-66
2022/12/06 06:29:29;;;;;;;;;;;;;;;7.01;87.56;101908.66;7350984;19;19919;-65
2022/12/06 06:31:57;;;;;;;;;;;;;;;6.99;87.77;101908.75;7348078;19;19922;-66
2022/12/06 06:34:25;;;;;;;;;;;;;;;6.98;87.81;101909.69;7350092;19;20335;-65
2022/12/06 06:36:52;;;;;;;;;;;;;;;6.98;87.91;101907.09;7350062;19;19954;-65
2022/12/06 06:39:19;;;;;;;;;;;;;;;7.00;87.85;101904.38;7352918;19;19956;-66
2022/12/06 06:41:46;;;;;;;;;;;;;;;6.99;87.78;101902.69;7351677;19;19969;-69
2022/12/06 06:44:13;;;;;;;;;;;;;;;6.97;88.08;101908.03;7349607;19;19922;-65
2022/12/06 06:46:40;;;;;;;;;;;;;;;6.95;88.21;101907.31;7348930;19;20223;-65
2022/12/06 06:49:07;;;;;;;;;;;;;;;6.93;87.73;101910.94;7349168;19;20244;-65
2022/12/06 06:51:34;;;;;;;;;;;;;;;6.95;87.60;101909.06;7348972;19;19933;-64
2022/12/06 06:54:01;;;;;;;;;;;;;;;6.99;87.85;101910.53;7354134;19;19937;-64
2022/12/06 06:56:28;;;;;;;;;;;;;;;6.99;87.20;101911.38;7352953;19;19933;-64
2022/12/06 06:58:55;;;;;;;;;;;;;;;7.05;86.67;101916.22;7349834;19;20770;-65
2022/12/06 07:01:23;;;;;;;;;;;;;;;7.07;86.53;101913.47;7348723;19;19957;-64
2022/12/06 07:03:50;;;;;;;;;;;;;;;7.09;85.72;101916.84;7349161;19;20490;-65
2022/12/06 07:06:18;;;;;;;;;;;;;;;7.10;85.59;101913.28;7353725;19;20018;-65
2022/12/06 07:08:45;;;;;;;;;;;;;;;7.11;85.35;101917.56;7351252;19;20417;-66
2022/12/06 07:11:13;;;;;;;;;;;;;;;7.10;85.32;101911.50;7351675;19;19926;-65
2022/12/06 07:13:41;;;;;;;;;;;;;;;7.12;85.06;101914.84;7349529;19;19935;-66
2022/12/06 07:16:15;;;;;;;;;;;;;;;7.19;84.07;101912.66;7349114;19;20264;-65
2022/12/06 07:18:42;;;;;;;;;;;;;;;7.17;83.70;101923.22;7350745;19;20354;-65
2022/12/06 07:21:12;;;;;;;;;;;;;;;7.20;83.66;101927.41;7349071;19;19930;-64
2022/12/06 07:23:39;;;;;;;;;;;;;;;7.18;83.74;101937.13;7351724;19;19994;-65
2022/12/06 07:26:09;;;;;;;;;;;;;;;7.20;83.58;101932.66;7351029;19;19915;-65
2022/12/06 07:28:37;;;;;;;;;;;;;;;7.18;82.98;101935.38;7343556;19;20006;-66
2022/12/06 07:31:14;;;;;;;;;;;;;;;7.13;83.48;101932.22;7349755;19;19923;-66
2022/12/06 07:33:42;;;;;;;;;;;;;;;7.12;83.80;101933.16;7333611;19;21839;-67
2022/12/06 07:36:09;;;;;;;;;;;;;;;7.16;84.35;101933.81;7344340;19;20005;-65
2022/12/06 07:38:39;;;;;;;;;;;;;;;7.19;84.86;101938.81;7349857;19;19957;-66
2022/12/06 07:46:10;;;;;;;;;;;;;;;7.26;83.94;101927.81;7346023;19;20014;-66
2022/12/06 07:48:37;;;;;;;;;;;;;;;7.28;83.72;101925.94;7349329;19;19927;-65
2022/12/06 07:51:05;;;;;;;;;;;;;;;7.31;83.33;101927.53;7346645;19;20013;-64
2022/12/06 07:53:32;;;;;;;;;;;;;;;7.32;82.83;101930.03;7347716;19;20508;-65
2022/12/06 07:55:59;;;;;;;;;;;;;;;7.35;82.30;101925.53;7349036;19;19922;-65
2022/12/06 07:58:26;;;;;;;;;;;;;;;7.34;81.88;101932.53;7348158;19;19941;-64
2022/12/06 08:00:53;;;;;;;;;;;;;;;7.34;82.03;101932.53;7345853;19;20266;-65
2022/12/06 08:03:20;;;;;;;;;;;;;;;7.36;82.36;101948.16;7346833;19;19990;-65
2022/12/06 08:05:51;;;;;;;;;;;;;;;7.37;81.13;101940.19;7349377;19;19926;-64
2022/12/06 08:08:18;;;;;;;;;;;;;;;7.38;81.36;101948.88;7348847;19;19935;-64
2022/12/06 08:10:53;;;;;;;;;;;;;;;7.34;81.10;101952.66;7352783;19;20504;-65
2022/12/06 08:13:21;;;;;;;;;;;;;;;7.32;80.94;101955.34;7351830;19;19918;-65
2022/12/06 08:15:48;;;;;;;;;;;;;;;7.29;81.13;101948.56;7356657;19;19915;-66
2022/12/06 08:18:15;;;;;;;;;;;;;;;7.31;82.40;101949.28;7354597;19;19911;-68
2022/12/06 08:20:42;;;;;;;;;;;;;;;7.29;81.88;101951.19;7354964;19;20845;-65
2022/12/06 08:23:10;;;;;;;;;;;;;;;7.31;81.23;101957.13;7306235;19;20252;-65
2022/12/06 08:25:41;;;;;;;;;;;;;;;7.32;81.13;101960.59;7343457;19;20426;-65
2022/12/06 08:28:11;;;;;;;;;;;;;;;7.32;81.76;101965.81;7344029;19;19959;-64
2022/12/06 08:30:38;;;;;;;;;;;;;;;7.33;81.30;101962.28;7350056;19;19923;-66
2022/12/06 08:33:05;;;;;;;;;;;;;;;7.34;81.65;101973.59;7345948;19;19914;-65
2022/12/06 08:35:35;;;;;;;;;;;;;;;7.33;81.28;101975.38;7348399;19;20519;-64
2022/12/06 08:38:02;;;;;;;;;;;;;;;7.34;81.20;101974.44;7348826;19;19923;-64
2022/12/06 08:40:30;;;;;;;;;;;;;;;7.35;80.91;101970.88;7351216;19;20611;-66
2022/12/06 08:42:57;;;;;;;;;;;;;;;7.38;81.17;101978.50;7350774;19;19926;-65
2022/12/06 08:45:24;;;;;;;;;;;;;;;7.38;80.54;101986.38;7355057;19;19918;-65
2022/12/06 08:47:51;;;;;;;;;;;;;;;7.39;80.18;101979.34;7354962;19;19962;-65
2022/12/06 08:50:18;;;;;;;;;;;;;;;7.40;80.11;101984.50;7355829;19;19943;-67
2022/12/06 08:52:45;;;;;;;;;;;;;;;7.42;79.71;101985.22;7352938;19;19926;-66
2022/12/06 08:55:13;;;;;;;;;;;;;;;7.39;79.85;101984.59;7355867;19;19944;-64
2022/12/06 08:57:40;;;;;;;;;;;;;;;7.38;80.09;101982.91;7352110;19;19930;-65
2022/12/06 09:00:09;;;;;;;;;;;;;;;7.39;79.74;101987.19;7352669;19;20490;-65
2022/12/06 09:02:38;;;;;;;;;;;;;;;7.40;79.98;101984.50;7350986;19;19922;-66
2022/12/06 09:05:06;;;;;;;;;;;;;;;7.36;80.18;101990.03;7353055;19;19927;-66
2022/12/06 09:07:33;;;;;;;;;;;;;;;7.33;80.17;101993.69;7356217;19;19923;-64
2022/12/06 09:10:01;;;;;;;;;;;;;;;7.29;79.91;101987.81;7354976;19;20676;-64
2022/12/06 09:12:28;;;;;;;;;;;;;;;7.29;80.03;101993.06;7354494;19;19926;-65
2022/12/06 09:14:55;;;;;;;;;;;;;;;7.36;79.40;102000.50;7356623;19;20778;-66
2022/12/06 09:17:22;;;;;;;;;;;;;;;7.34;79.13;101998.00;7354355;19;20027;-66
2022/12/06 09:19:50;;;;;;;;;;;;;;;7.33;79.08;101998.94;7352086;19;19919;-64
2022/12/06 09:22:17;;;;;;;;;;;;;;;7.34;78.79;101998.00;7351059;19;20750;-65
2022/12/06 09:24:44;;;;;;;;;;;;;;;7.35;78.68;102001.44;7356135;19;19922;-67
2022/12/06 09:27:11;;;;;;;;;;;;;;;7.34;79.72;102000.59;7352482;19;20513;-64
2022/12/06 09:29:38;;;;;;;;;;;;;;;7.28;79.10;101998.38;7354017;19;19942;-64
2022/12/06 09:32:06;;;;;;;;;;;;;;;7.28;79.23;102004.47;7350474;19;20022;-65
2022/12/06 09:34:33;;;;;;;;;;;;;;;7.32;78.65;101999.84;7353444;19;20010;-65
2022/12/06 09:37:04;;;;;;;;;;;;;;;7.35;78.33;102011.91;7351162;19;19937;-64
2022/12/06 09:39:33;;;;;;;;;;;;;;;7.37;78.48;102007.41;7353377;19;19930;-67
2022/12/06 09:42:10;;;;;;;;;;;;;;;7.38;79.12;102003.84;7351650;19;19957;-65
2022/12/06 09:44:40;;;;;;;;;;;;;;;7.39;78.79;102008.16;7354472;19;19930;-65
2022/12/06 09:47:09;;;;;;;;;;;;;;;7.42;78.24;102011.38;7351058;19;20260;-65
2022/12/06 09:49:42;;;;;;;;;;;;;;;7.48;78.31;102012.75;7358307;19;19931;-66
2022/12/06 09:52:19;;;;;;;;;;;;;;;7.54;78.01;102005.34;7355712;19;19918;-66
2022/12/06 09:54:47;;;;;;;;;;;;;;;7.59;78.25;102010.25;7357286;19;19971;-65
2022/12/06 09:57:20;;;;;;;;;;;;;;;7.64;77.25;102016.03;7352399;19;19922;-65
2022/12/06 09:59:50;;;;;;;;;;;;;;;7.69;77.27;102017.38;7352084;19;20454;-65
2022/12/06 10:02:21;;;;;;;;;;;;;;;7.69;76.81;102012.16;7350221;19;19922;-66
2022/12/06 10:04:51;;;;;;;;;;;;;;;7.66;77.54;102019.38;7351281;19;19945;-65
2022/12/06 10:07:21;;;;;;;;;;;;;;;7.65;78.08;102022.94;7352550;19;19990;-65
2022/12/06 10:09:51;;;;;;;;;;;;;;;7.65;77.96;102023.78;7350193;19;19923;-66
2022/12/06 10:12:22;;;;;;;;;;;;;;;7.65;78.39;102025.56;7350676;19;20389;-64
2022/12/06 10:14:52;;;;;;;;;;;;;;;7.67;77.67;102021.88;7351405;19;20422;-65
2022/12/06 10:17:22;;;;;;;;;;;;;;;7.68;77.62;102030.56;7350464;19;19922;-64
2022/12/06 10:19:52;;;;;;;;;;;;;;;7.69;77.78;102024.41;7349082;19;20322;-66
2022/12/06 10:22:27;;;;;;;;;;;;;;;7.70;77.95;102028.72;7352579;19;19927;-65
2022/12/06 10:24:57;;;;;;;;;;;;;;;7.72;77.73;102024.19;7350809;19;19922;-65
2022/12/06 10:27:27;;;;;;;;;;;;;;;7.75;77.47;102021.38;7347912;19;19930;-65
2022/12/06 10:29:57;;;;;;;;;;;;;;;7.74;77.79;102020.53;7349851;19;19927;-66
2022/12/06 10:32:34;;;;;;;;;;;;;;;7.76;77.66;102017.81;7350040;19;19922;-65
2022/12/06 10:35:12;;;;;;;;;;;;;;;7.76;78.35;102016.97;7351734;19;20662;-65
2022/12/06 10:37:42;;;;;;;;;;;;;;;7.75;78.68;102024.00;7350428;19;19923;-67
2022/12/06 10:40:12;;;;;;;;;;;;;;;7.79;79.06;102009.75;7351173;19;20535;-65
2022/12/06 10:42:44;;;;;;;;;;;;;;;7.84;77.89;102010.25;7350613;19;21760;-65
2022/12/06 10:47:02;;;;;;;;;;;;;;;7.88;78.33;102009.09;7347574;19;20464;-66
2022/12/06 10:48:06;;;;;;;;;;;;;;;7.95;77.25;102006.91;7349368;19;19915;-66
2022/12/06 10:50:36;;;;;;;;;;;;;;;7.95;76.80;102007.75;7350316;19;19975;-65
2022/12/06 10:53:08;;;;;;;;;;;;;;;7.96;77.34;102004.19;7349789;19;19910;-65
2022/12/06 10:55:43;;;;;;;;;;;;;;;8.01;76.43;102004.69;7348278;19;20861;-65
2022/12/06 10:58:14;;;;;;;;;;;;;;;8.03;75.90;101988.84;7348570;19;19967;-68
2022/12/06 11:00:44;;;;;;;;;;;;;;;8.03;76.31;101994.09;7298249;19;19955;-64
2022/12/06 11:03:16;;;;;;;;;;;;;;;8.02;76.73;101992.44;7339102;19;20391;-67
2022/12/06 11:05:52;;;;;;;;;;;;;;;8.04;76.11;101996.59;7347747;19;20448;-65
2022/12/06 11:08:23;;;;;;;;;;;;;;;8.09;75.71;101989.25;7348893;19;19940;-65
2022/12/06 11:10:51;;;;;;;;;;;;;;;8.09;75.67;101983.19;7351595;19;19933;-65
2022/12/06 11:13:21;;;;;;;;;;;;;;;8.14;75.60;101988.94;7347392;19;19936;-67
2022/12/06 11:15:52;;;;;;;;;;;;;;;8.14;75.04;101984.53;7347661;19;20271;-65
2022/12/06 11:18:19;;;;;;;;;;;;;;;8.15;74.82;101977.50;7347665;19;20801;-65
2022/12/06 11:20:50;;;;;;;;;;;;;;;8.13;74.84;101982.84;7353394;19;19934;-65
2022/12/06 11:23:27;;;;;;;;;;;;;;;8.13;75.27;101976.75;7348951;19;19959;-65
2022/12/06 11:25:55;;;;;;;;;;;;;;;8.22;74.50;101977.91;7349390;19;20256;-64
2022/12/06 11:28:24;;;;;;;;;;;;;;;8.24;74.08;101982.09;7344126;19;19983;-65
2022/12/06 11:30:52;;;;;;;;;;;;;;;8.27;75.17;101981.88;7350348;19;20498;-65
2022/12/06 11:33:22;;;;;;;;;;;;;;;8.32;74.18;101982.44;7345035;19;19922;-64
2022/12/06 11:35:49;;;;;;;;;;;;;;;8.37;74.52;101980.31;7348726;19;20399;-66
2022/12/06 11:38:17;;;;;;;;;;;;;;;8.43;74.04;101977.22;7348604;19;19954;-66
2022/12/06 11:40:45;;;;;;;;;;;;;;;8.48;73.73;101975.13;7346690;19;19949;-66
2022/12/06 11:43:16;;;;;;;;;;;;;;;8.54;74.08;101964.19;7350713;19;19923;-65
2022/12/06 11:45:44;;;;;;;;;;;;;;;8.60;73.21;101968.16;7356428;19;19926;-64
2022/12/06 11:48:14;;;;;;;;;;;;;;;8.68;71.98;101972.84;7355668;19;20569;-65
2022/12/06 11:50:42;;;;;;;;;;;;;;;8.74;70.68;101967.97;7356742;19;19918;-67
2022/12/06 11:53:12;;;;;;;;;;;;;;;8.82;70.25;101967.44;7353801;19;20453;-65
2022/12/06 11:55:41;;;;;;;;;;;;;;;8.84;71.09;101960.25;7356221;19;20403;-64
2022/12/06 11:58:10;;;;;;;;;;;;;;;8.89;70.14;101961.59;7352950;19;21599;-65
2022/12/06 12:00:55;;;;;;;;;;;;;;;8.87;70.72;101960.88;7334191;19;19957;-66
2022/12/06 12:03:27;;;;;;;;;;;;;;;8.87;70.89;101955.63;7347824;19;19919;-64
2022/12/06 12:06:06;;;;;;;;;;;;;;;8.89;70.73;101950.25;7351705;19;20465;-66
2022/12/06 12:08:33;;;;;;;;;;;;;;;8.88;71.01;101948.59;7352128;19;19918;-65
2022/12/06 12:11:03;;;;;;;;;;;;;;;8.86;70.80;101948.72;7351081;19;20553;-65
2022/12/06 12:16:33;;;;;;;;;;;;;;;8.79;71.42;101946.63;7350144;19;19915;-66
2022/12/06 12:19:02;;;;;;;;;;;;;;;8.77;72.46;101948.56;7349305;19;20607;-65
2022/12/06 12:21:29;;;;;;;;;;;;;;;8.81;72.33;101942.13;7347246;19;20326;-64
2022/12/06 12:23:57;;;;;;;;;;;;;;;8.87;72.52;101944.31;7350913;19;20379;-65
2022/12/06 12:26:32;;;;;;;;;;;;;;;8.94;72.46;101946.34;7349405;19;20518;-65
2022/12/06 12:29:04;;;;;;;;;;;;;;;9.05;71.91;101942.06;7345837;19;19934;-64
2022/12/06 12:31:32;;;;;;;;;;;;;;;9.01;71.65;101931.81;7346767;19;20262;-66
2022/12/06 12:34:02;;;;;;;;;;;;;;;9.01;70.70;101934.44;7347798;19;20031;-66
2022/12/06 12:36:29;;;;;;;;;;;;;;;8.95;70.81;101924.41;7348159;19;19927;-64
2022/12/06 12:39:01;;;;;;;;;;;;;;;8.93;70.74;101928.94;7349436;19;19926;-65
2022/12/06 12:41:31;;;;;;;;;;;;;;;8.94;71.26;101924.50;7349530;19;19918;-66
2022/12/06 12:44:02;;;;;;;;;;;;;;;8.92;71.14;101921.19;7350194;19;19918;-65
2022/12/06 12:46:53;;;;;;;;;;;;;;;8.93;71.88;101928.94;7346511;19;20581;-64
2022/12/06 12:49:23;;;;;;;;;;;;;;;8.99;70.54;101914.50;7349029;19;20284;-64
2022/12/06 12:51:50;;;;;;;;;;;;;;;9.04;70.71;101911.56;7348026;19;19914;-66
2022/12/06 12:54:19;;;;;;;;;;;;;;;9.07;70.27;101900.81;7346731;19;19951;-65
2022/12/06 12:56:46;;;;;;;;;;;;;;;9.11;68.94;101904.88;7350971;19;19930;-65
2022/12/06 12:59:15;;;;;;;;;;;;;;;9.13;68.14;101903.81;7350237;19;19955;-65
2022/12/06 13:01:45;;;;;;;;;;;;;;;9.11;68.99;101900.47;7349621;19;19923;-65
2022/12/06 13:04:14;;;;;;;;;;;;;;;9.09;68.65;101901.53;7347179;19;19915;-64
2022/12/06 13:06:42;;;;;;;;;;;;;;;9.09;68.77;101891.88;7352096;19;19918;-64
2022/12/06 13:09:14;;;;;;;;;;;;;;;9.11;69.43;101887.31;7353314;19;19926;-64
2022/12/06 13:11:45;;;;;;;;;;;;;;;9.18;69.32;101887.72;7350204;19;19986;-64
2022/12/06 13:14:29;;;;;;;;;;;;;;;9.22;69.10;101891.75;7347471;19;19927;-64
2022/12/06 13:16:59;;;;;;;;;;;;;;;9.25;68.55;101888.88;7349179;19;20712;-65
2022/12/06 13:19:29;;;;;;;;;;;;;;;9.27;68.56;101890.47;7350130;19;20092;-66
2022/12/06 13:24:31;;;;;;;;;;;;;;;9.29;69.33;101891.19;7352809;19;19923;-65
2022/12/06 13:27:02;;;;;;;;;;;;;;;9.29;69.22;101885.94;7349128;19;20022;-65
2022/12/06 13:29:33;;;;;;;;;;;;;;;9.33;67.67;101889.16;7350087;19;19951;-65
2022/12/06 13:32:03;;;;;;;;;;;;;;;9.35;67.38;101890.69;7351057;19;19933;-65